createdAt,value
2017-11-16T00:00:29.268Z,17.87
2017-11-16T00:05:30.964Z,15.27
2017-11-16T00:10:32.640Z,15.80
2017-11-16T00:15:34.348Z,16.80
2017-11-16T00:20:36.025Z,16.47
2017-11-16T00:25:37.686Z,16.00
2017-11-16T00:30:39.487Z,15.73
2017-11-16T00:35:41.185Z,14.87
2017-11-16T00:40:42.888Z,15.77
2017-11-16T00:45:44.538Z,15.37
2017-11-16T00:50:46.209Z,14.60
2017-11-16T00:55:47.942Z,14.60
2017-11-16T01:00:50.406Z,14.47
2017-11-16T01:05:52.136Z,14.50
2017-11-16T01:10:53.819Z,13.10
2017-11-16T01:15:55.492Z,14.77
2017-11-16T01:20:57.501Z,14.20
2017-11-16T01:25:59.192Z,13.67
2017-11-16T01:31:01.668Z,14.80
2017-11-16T01:36:03.336Z,14.90
2017-11-16T01:41:05.074Z,13.27
2017-11-16T01:46:07.540Z,13.27
2017-11-16T01:51:09.218Z,14.27
2017-11-16T01:56:10.927Z,14.50
2017-11-16T02:01:12.715Z,13.37
2017-11-16T02:06:14.439Z,14.60
2017-11-16T02:11:16.260Z,13.93
2017-11-16T02:16:17.943Z,13.50
2017-11-16T02:21:20.477Z,15.03
2017-11-16T02:26:22.791Z,13.07
2017-11-16T02:31:25.313Z,13.77
2017-11-16T02:36:28.552Z,14.73
2017-11-16T02:41:31.008Z,13.77
2017-11-16T02:46:33.563Z,13.20
2017-11-16T02:51:36.046Z,12.77
2017-11-16T02:56:38.533Z,13.97
2017-11-16T03:01:41.130Z,13.30
2017-11-16T03:06:42.879Z,13.97
2017-11-16T03:11:44.579Z,13.73
2017-11-16T03:16:46.693Z,13.20
2017-11-16T03:21:48.391Z,13.37
2017-11-16T03:26:50.110Z,13.23
2017-11-16T03:31:51.812Z,13.33
2017-11-16T03:36:53.543Z,14.10
2017-11-16T03:41:55.997Z,13.80
2017-11-16T03:46:57.685Z,13.90
2017-11-16T03:51:59.430Z,13.73
2017-11-16T03:57:01.290Z,14.03
2017-11-16T04:02:03.055Z,12.97
2017-11-16T04:07:04.739Z,13.30
2017-11-16T04:12:06.459Z,13.23
2017-11-16T04:17:08.915Z,13.60
2017-11-16T04:22:10.701Z,15.90
2017-11-16T04:27:12.403Z,16.13
2017-11-16T04:32:17.265Z,15.43
2017-11-16T04:37:19.555Z,13.37
2017-11-16T04:42:21.291Z,14.47
2017-11-16T04:47:23.000Z,14.40
2017-11-16T04:52:24.671Z,14.80
2017-11-16T04:57:26.395Z,15.13
2017-11-16T05:02:28.164Z,15.60
2017-11-16T05:07:30.601Z,14.47
2017-11-16T05:12:32.596Z,14.83
2017-11-16T05:17:34.276Z,14.80
2017-11-16T05:22:36.837Z,14.87
2017-11-16T05:27:38.580Z,14.00
2017-11-16T05:32:41.030Z,14.33
2017-11-16T05:37:42.730Z,14.93
2017-11-16T05:42:44.447Z,14.60
2017-11-16T05:47:46.139Z,15.40
2017-11-16T05:52:47.887Z,14.80
2017-11-16T05:57:49.618Z,14.93
2017-11-16T06:02:51.369Z,14.53
2017-11-16T06:07:53.055Z,12.43
2017-11-16T06:12:54.755Z,13.43
2017-11-16T06:17:56.785Z,13.37
2017-11-16T06:22:59.224Z,12.60
2017-11-16T06:28:01.051Z,14.03
2017-11-16T06:33:02.818Z,14.13
2017-11-16T06:38:05.244Z,12.30
2017-11-16T06:43:06.985Z,12.53
2017-11-16T06:48:08.713Z,12.33
2017-11-16T06:53:11.156Z,12.27
2017-11-16T06:58:12.875Z,13.27
2017-11-16T07:03:14.627Z,11.57
2017-11-16T07:08:17.066Z,13.03
2017-11-16T07:13:18.759Z,11.90
2017-11-16T07:18:20.467Z,12.70
2017-11-16T07:23:22.143Z,11.93
2017-11-16T07:28:24.550Z,12.83
2017-11-16T07:33:26.955Z,12.73
2017-11-16T07:38:28.642Z,12.30
2017-11-16T07:43:30.329Z,13.20
2017-11-16T07:48:32.033Z,11.40
2017-11-16T07:53:33.759Z,12.80
2017-11-16T07:58:36.263Z,11.43
2017-11-16T08:03:37.931Z,13.00
2017-11-16T08:08:39.619Z,12.87
2017-11-16T08:13:42.010Z,12.90
2017-11-16T08:18:43.684Z,13.40
2017-11-16T08:23:46.137Z,13.30
2017-11-16T08:28:47.860Z,13.50
2017-11-16T08:33:49.602Z,13.77
2017-11-16T08:38:52.062Z,13.77
2017-11-16T08:43:53.772Z,12.60
2017-11-16T08:48:55.519Z,13.90
2017-11-16T08:53:57.276Z,12.90
2017-11-16T08:58:59.047Z,12.90
2017-11-16T09:04:00.760Z,13.20
2017-11-16T09:09:02.553Z,12.10
2017-11-16T09:14:04.296Z,13.40
2017-11-16T09:19:06.775Z,13.70
2017-11-16T09:24:15.374Z,13.67
2017-11-16T09:29:17.135Z,13.27
2017-11-16T09:34:18.896Z,12.97
2017-11-16T09:39:20.615Z,12.20
2017-11-16T09:44:22.418Z,12.03
2017-11-16T09:49:24.123Z,12.90
2017-11-16T09:54:25.868Z,12.00
2017-11-16T09:59:28.347Z,11.93
2017-11-16T10:04:30.033Z,13.10
2017-11-16T10:09:31.752Z,11.80
2017-11-16T10:14:33.467Z,12.20
2017-11-16T10:19:35.144Z,12.07
2017-11-16T10:24:36.854Z,11.70
2017-11-16T10:29:38.595Z,12.90
2017-11-16T10:34:40.303Z,12.77
2017-11-16T10:39:41.994Z,12.40
2017-11-16T10:44:43.767Z,12.00
2017-11-16T10:49:46.325Z,11.80
2017-11-16T10:54:48.030Z,12.03
2017-11-16T10:59:49.765Z,11.63
2017-11-16T11:04:51.444Z,11.43
2017-11-16T11:09:53.129Z,12.33
2017-11-16T11:14:54.827Z,12.10
2017-11-16T11:19:56.522Z,12.30
2017-11-16T11:24:58.205Z,12.20
2017-11-16T11:29:59.927Z,12.00
2017-11-16T11:35:01.647Z,12.20
2017-11-16T11:40:03.339Z,11.43
2017-11-16T11:45:05.023Z,11.60
2017-11-16T11:50:06.774Z,11.30
2017-11-16T11:55:08.470Z,12.17
2017-11-16T12:00:10.195Z,12.10
2017-11-16T12:05:11.926Z,11.07
2017-11-16T12:10:13.603Z,12.07
2017-11-16T12:15:15.308Z,11.03
2017-11-16T12:20:17.024Z,11.63
2017-11-16T12:25:18.825Z,12.10
2017-11-16T12:30:20.573Z,18.37
2017-11-16T12:35:22.327Z,12.43
2017-11-16T12:40:24.074Z,11.97
2017-11-16T12:45:25.821Z,13.07
2017-11-16T12:50:27.976Z,12.17
2017-11-16T12:55:29.723Z,13.47
2017-11-16T13:00:31.511Z,12.77
2017-11-16T13:05:33.235Z,13.83
2017-11-16T13:10:34.936Z,13.00
2017-11-16T13:15:36.674Z,14.30
2017-11-16T13:20:38.364Z,14.50
2017-11-16T13:25:40.049Z,13.80
2017-11-16T13:30:42.376Z,14.50
2017-11-16T13:35:44.048Z,13.33
2017-11-16T13:40:46.476Z,13.30
2017-11-16T13:45:48.908Z,13.13
2017-11-16T13:50:50.597Z,13.80
2017-11-16T13:55:52.268Z,14.10
2017-11-16T14:00:54.047Z,13.70
2017-11-16T14:05:55.899Z,13.23
2017-11-16T14:10:57.564Z,14.03
2017-11-16T14:15:59.991Z,14.90
2017-11-16T14:21:02.475Z,14.70
2017-11-16T14:26:04.154Z,15.17
2017-11-16T14:31:05.848Z,13.37
2017-11-16T14:36:08.029Z,15.30
2017-11-16T14:41:09.691Z,15.30
2017-11-16T14:46:11.460Z,14.80
2017-11-16T14:51:13.173Z,14.43
2017-11-16T14:56:14.891Z,15.57
2017-11-16T15:01:17.366Z,15.80
2017-11-16T15:06:19.072Z,14.77
2017-11-16T15:11:20.797Z,14.63
2017-11-16T15:16:22.535Z,16.00
2017-11-16T15:21:24.236Z,15.50
2017-11-16T15:26:26.142Z,15.63
2017-11-16T15:31:27.836Z,15.60
2017-11-16T15:36:29.536Z,15.97
2017-11-16T15:41:31.230Z,14.80
2017-11-16T15:46:32.927Z,15.70
2017-11-16T15:51:34.639Z,13.70
2017-11-16T15:56:36.332Z,14.90
2017-11-16T16:01:38.062Z,13.87
2017-11-16T16:06:39.785Z,13.43
2017-11-16T16:11:42.271Z,14.20
2017-11-16T16:16:43.990Z,16.17
2017-11-16T16:21:45.687Z,14.97
2017-11-16T16:26:47.388Z,15.77
2017-11-16T16:31:49.066Z,14.83
2017-11-16T16:36:50.771Z,13.37
2017-11-16T16:41:52.476Z,13.40
2017-11-16T16:46:54.220Z,23.67
2017-11-16T16:51:55.974Z,13.57
2017-11-16T16:56:57.698Z,14.60
2017-11-16T17:01:59.447Z,14.23
2017-11-16T17:07:01.160Z,15.47
2017-11-16T17:12:07.544Z,15.33
2017-11-16T17:17:09.524Z,14.90
2017-11-16T17:22:11.222Z,16.63
2017-11-16T17:27:12.986Z,14.77
2017-11-16T17:32:14.684Z,15.80
2017-11-16T17:37:16.398Z,14.40
2017-11-16T17:42:18.824Z,16.30
2017-11-16T17:47:20.634Z,15.60
2017-11-16T17:52:22.364Z,15.40
2017-11-16T17:57:24.049Z,15.20
2017-11-16T18:02:25.839Z,15.10
2017-11-16T18:07:27.580Z,15.03
2017-11-16T18:12:29.294Z,16.30
2017-11-16T18:17:30.981Z,16.50
2017-11-16T18:22:33.738Z,15.87
2017-11-16T18:27:36.373Z,14.53
2017-11-16T18:32:39.012Z,18.60
2017-11-16T18:37:41.729Z,17.90
2017-11-16T18:42:44.410Z,18.43
2017-11-16T18:47:51.612Z,17.80
2017-11-16T18:52:55.360Z,17.90
2017-11-16T18:57:57.976Z,18.63
2017-11-16T19:03:00.619Z,17.97
2017-11-16T19:08:04.059Z,17.87
2017-11-16T19:13:07.346Z,20.03
2017-11-16T19:18:09.806Z,20.17
2017-11-16T19:23:12.355Z,22.20
2017-11-16T19:28:14.942Z,22.53
2017-11-16T19:33:17.469Z,23.10
2017-11-16T19:38:20.693Z,23.17
2017-11-16T19:43:23.605Z,21.50
2017-11-16T19:48:26.065Z,22.53
2017-11-16T19:53:28.370Z,21.47
2017-11-16T19:58:30.382Z,22.90
2017-11-16T20:03:34.132Z,22.30
2017-11-16T20:08:37.977Z,21.40
2017-11-16T20:13:40.027Z,22.57
2017-11-16T20:18:41.933Z,23.40
2017-11-16T20:23:44.004Z,23.20
2017-11-16T20:28:45.685Z,23.10
2017-11-16T20:33:48.275Z,21.70
2017-11-16T20:44:45.469Z,22.33
2017-11-16T20:55:40.110Z,23.33
2017-11-16T21:00:44.466Z,23.80
2017-11-16T21:05:49.510Z,24.07
2017-11-16T21:10:52.570Z,25.43
2017-11-16T21:15:55.176Z,24.77
2017-11-16T21:20:57.466Z,24.23
2017-11-16T21:25:59.907Z,24.87
2017-11-16T21:31:02.416Z,26.10
2017-11-16T21:36:04.932Z,26.67
2017-11-16T21:41:07.461Z,27.10
2017-11-16T21:46:10.041Z,27.57
2017-11-16T21:51:13.333Z,27.33
2017-11-16T21:56:15.826Z,26.63
2017-11-16T22:01:18.268Z,29.03
2017-11-16T22:06:20.501Z,30.53
2017-11-16T22:11:22.795Z,28.33
2017-11-16T22:16:25.153Z,30.50
2017-11-16T22:21:28.249Z,30.13
2017-11-16T22:26:30.326Z,30.07
2017-11-16T22:31:32.484Z,30.13
2017-11-16T22:36:34.183Z,30.00
2017-11-16T22:41:35.855Z,29.30
2017-11-16T22:46:37.587Z,30.40
2017-11-16T22:51:40.025Z,30.00
2017-11-16T22:56:41.717Z,31.17
2017-11-16T23:01:43.448Z,30.00
2017-11-16T23:06:45.132Z,29.67
2017-11-16T23:11:46.859Z,28.87
2017-11-16T23:16:48.529Z,32.20
2017-11-16T23:21:50.219Z,32.50
2017-11-16T23:26:51.897Z,32.27
2017-11-16T23:31:53.576Z,33.07
2017-11-16T23:36:55.231Z,34.10
2017-11-16T23:41:56.902Z,33.73
2017-11-16T23:46:58.597Z,36.20
2017-11-16T23:52:00.301Z,35.40
2017-11-16T23:57:01.995Z,34.23
